sensor_id;sensor_type;location;lat;lon;timestamp;P1;durP1;ratioP1;P2;durP2;ratioP2
22152;SDS011;11242;50.536;12.688;2023-05-29T00:01:34;7.03;;;5.15;;
22152;SDS011;11242;50.536;12.688;2023-05-29T00:04:01;6.72;;;5.05;;
22152;SDS011;11242;50.536;12.688;2023-05-29T00:06:27;7.32;;;5.47;;
22152;SDS011;11242;50.536;12.688;2023-05-29T00:08:52;10.13;;;5.30;;
22152;SDS011;11242;50.536;12.688;2023-05-29T00:11:18;9.50;;;5.50;;
22152;SDS011;11242;50.536;12.688;2023-05-29T00:13:44;7.60;;;5.40;;
22152;SDS011;11242;50.536;12.688;2023-05-29T00:16:09;7.40;;;5.57;;
22152;SDS011;11242;50.536;12.688;2023-05-29T00:18:35;8.38;;;5.40;;
22152;SDS011;11242;50.536;12.688;2023-05-29T00:21:04;9.00;;;5.40;;
22152;SDS011;11242;50.536;12.688;2023-05-29T00:23:31;12.30;;;6.10;;
22152;SDS011;11242;50.536;12.688;2023-05-29T00:25:57;9.68;;;5.47;;
22152;SDS011;11242;50.536;12.688;2023-05-29T00:28:22;7.05;;;5.57;;
22152;SDS011;11242;50.536;12.688;2023-05-29T00:30:48;9.70;;;5.25;;
22152;SDS011;11242;50.536;12.688;2023-05-29T00:33:14;9.32;;;5.47;;
22152;SDS011;11242;50.536;12.688;2023-05-29T00:35:40;9.13;;;6.13;;
22152;SDS011;11242;50.536;12.688;2023-05-29T00:38:06;9.43;;;5.72;;
22152;SDS011;11242;50.536;12.688;2023-05-29T00:40:32;9.95;;;5.97;;
22152;SDS011;11242;50.536;12.688;2023-05-29T00:42:57;8.05;;;5.63;;
22152;SDS011;11242;50.536;12.688;2023-05-29T00:45:23;8.77;;;6.05;;
22152;SDS011;11242;50.536;12.688;2023-05-29T00:47:49;9.02;;;5.65;;
22152;SDS011;11242;50.536;12.688;2023-05-29T00:50:14;9.60;;;5.38;;
22152;SDS011;11242;50.536;12.688;2023-05-29T00:52:41;7.97;;;5.80;;
22152;SDS011;11242;50.536;12.688;2023-05-29T00:55:10;8.38;;;5.50;;
22152;SDS011;11242;50.536;12.688;2023-05-29T00:57:36;7.78;;;5.43;;
22152;SDS011;11242;50.536;12.688;2023-05-29T01:00:04;8.82;;;5.47;;
22152;SDS011;11242;50.536;12.688;2023-05-29T01:02:33;10.60;;;6.78;;
22152;SDS011;11242;50.536;12.688;2023-05-29T01:05:04;12.45;;;6.00;;
22152;SDS011;11242;50.536;12.688;2023-05-29T01:07:31;9.98;;;6.05;;
22152;SDS011;11242;50.536;12.688;2023-05-29T01:09:58;8.43;;;6.22;;
22152;SDS011;11242;50.536;12.688;2023-05-29T01:15:36;8.57;;;6.22;;
22152;SDS011;11242;50.536;12.688;2023-05-29T01:18:14;7.82;;;5.88;;
22152;SDS011;11242;50.536;12.688;2023-05-29T01:21:06;8.95;;;6.25;;
22152;SDS011;11242;50.536;12.688;2023-05-29T01:24:09;7.60;;;5.75;;
22152;SDS011;11242;50.536;12.688;2023-05-29T01:27:00;8.70;;;6.18;;
22152;SDS011;11242;50.536;12.688;2023-05-29T01:29:32;7.78;;;6.20;;
22152;SDS011;11242;50.536;12.688;2023-05-29T01:31:59;8.52;;;6.38;;
22152;SDS011;11242;50.536;12.688;2023-05-29T01:34:27;7.82;;;5.53;;
22152;SDS011;11242;50.536;12.688;2023-05-29T01:36:53;7.93;;;6.18;;
22152;SDS011;11242;50.536;12.688;2023-05-29T01:39:18;7.88;;;6.05;;
22152;SDS011;11242;50.536;12.688;2023-05-29T01:41:45;8.60;;;5.85;;
22152;SDS011;11242;50.536;12.688;2023-05-29T01:44:13;9.60;;;6.10;;
22152;SDS011;11242;50.536;12.688;2023-05-29T01:46:40;8.77;;;6.18;;
22152;SDS011;11242;50.536;12.688;2023-05-29T01:49:07;9.90;;;6.30;;
22152;SDS011;11242;50.536;12.688;2023-05-29T01:51:34;8.30;;;6.10;;
22152;SDS011;11242;50.536;12.688;2023-05-29T01:54:00;8.75;;;6.20;;
22152;SDS011;11242;50.536;12.688;2023-05-29T01:56:27;12.63;;;6.40;;
22152;SDS011;11242;50.536;12.688;2023-05-29T01:59:00;9.00;;;6.00;;
22152;SDS011;11242;50.536;12.688;2023-05-29T02:01:29;8.18;;;6.10;;
22152;SDS011;11242;50.536;12.688;2023-05-29T02:03:54;8.48;;;6.07;;
22152;SDS011;11242;50.536;12.688;2023-05-29T02:06:20;9.50;;;5.88;;
22152;SDS011;11242;50.536;12.688;2023-05-29T02:08:46;9.23;;;6.10;;
22152;SDS011;11242;50.536;12.688;2023-05-29T02:11:12;7.90;;;6.65;;
22152;SDS011;11242;50.536;12.688;2023-05-29T02:13:37;11.45;;;6.53;;
22152;SDS011;11242;50.536;12.688;2023-05-29T02:16:03;10.10;;;6.30;;
22152;SDS011;11242;50.536;12.688;2023-05-29T02:18:29;9.50;;;6.13;;
22152;SDS011;11242;50.536;12.688;2023-05-29T02:20:59;10.30;;;6.25;;
22152;SDS011;11242;50.536;12.688;2023-05-29T02:23:27;8.38;;;6.15;;
22152;SDS011;11242;50.536;12.688;2023-05-29T02:25:52;13.13;;;7.47;;
22152;SDS011;11242;50.536;12.688;2023-05-29T02:28:18;9.95;;;7.18;;
22152;SDS011;11242;50.536;12.688;2023-05-29T02:30:43;9.18;;;6.32;;
22152;SDS011;11242;50.536;12.688;2023-05-29T02:33:09;10.38;;;6.10;;
22152;SDS011;11242;50.536;12.688;2023-05-29T02:35:34;10.60;;;6.60;;
22152;SDS011;11242;50.536;12.688;2023-05-29T02:38:00;9.50;;;6.57;;
22152;SDS011;11242;50.536;12.688;2023-05-29T02:40:26;8.93;;;6.43;;
22152;SDS011;11242;50.536;12.688;2023-05-29T02:42:51;8.85;;;6.40;;
22152;SDS011;11242;50.536;12.688;2023-05-29T02:45:17;9.88;;;6.38;;
22152;SDS011;11242;50.536;12.688;2023-05-29T02:47:43;7.30;;;5.93;;
22152;SDS011;11242;50.536;12.688;2023-05-29T02:50:08;8.82;;;6.10;;
22152;SDS011;11242;50.536;12.688;2023-05-29T02:52:35;9.30;;;6.05;;
22152;SDS011;11242;50.536;12.688;2023-05-29T02:55:04;12.57;;;6.40;;
22152;SDS011;11242;50.536;12.688;2023-05-29T02:57:31;8.05;;;5.95;;
22152;SDS011;11242;50.536;12.688;2023-05-29T02:59:57;8.98;;;5.80;;
22152;SDS011;11242;50.536;12.688;2023-05-29T03:02:23;8.60;;;6.25;;
22152;SDS011;11242;50.536;12.688;2023-05-29T03:04:50;9.35;;;6.40;;
22152;SDS011;11242;50.536;12.688;2023-05-29T03:07:18;9.20;;;6.40;;
22152;SDS011;11242;50.536;12.688;2023-05-29T03:09:43;10.85;;;6.40;;
22152;SDS011;11242;50.536;12.688;2023-05-29T03:12:09;8.57;;;6.20;;
22152;SDS011;11242;50.536;12.688;2023-05-29T03:14:36;9.70;;;7.10;;
22152;SDS011;11242;50.536;12.688;2023-05-29T03:17:05;12.88;;;6.15;;
22152;SDS011;11242;50.536;12.688;2023-05-29T03:19:31;8.63;;;6.53;;
22152;SDS011;11242;50.536;12.688;2023-05-29T03:21:56;11.05;;;6.60;;
22152;SDS011;11242;50.536;12.688;2023-05-29T03:24:22;10.05;;;6.40;;
22152;SDS011;11242;50.536;12.688;2023-05-29T03:26:49;10.13;;;6.97;;
22152;SDS011;11242;50.536;12.688;2023-05-29T03:29:15;7.65;;;5.90;;
22152;SDS011;11242;50.536;12.688;2023-05-29T03:31:42;11.43;;;6.00;;
22152;SDS011;11242;50.536;12.688;2023-05-29T03:34:08;10.07;;;5.95;;
22152;SDS011;11242;50.536;12.688;2023-05-29T03:36:37;12.48;;;6.55;;
22152;SDS011;11242;50.536;12.688;2023-05-29T03:39:04;11.07;;;6.70;;
22152;SDS011;11242;50.536;12.688;2023-05-29T03:41:31;12.43;;;6.32;;
22152;SDS011;11242;50.536;12.688;2023-05-29T03:43:57;9.88;;;6.20;;
22152;SDS011;11242;50.536;12.688;2023-05-29T03:46:25;13.02;;;5.95;;
22152;SDS011;11242;50.536;12.688;2023-05-29T03:48:52;10.95;;;6.20;;
22152;SDS011;11242;50.536;12.688;2023-05-29T03:51:21;8.10;;;5.65;;
22152;SDS011;11242;50.536;12.688;2023-05-29T03:53:48;8.77;;;6.20;;
22152;SDS011;11242;50.536;12.688;2023-05-29T03:56:13;12.02;;;6.00;;
22152;SDS011;11242;50.536;12.688;2023-05-29T03:58:40;7.88;;;5.57;;
22152;SDS011;11242;50.536;12.688;2023-05-29T04:01:07;9.07;;;6.00;;
22152;SDS011;11242;50.536;12.688;2023-05-29T04:03:33;8.45;;;6.03;;
22152;SDS011;11242;50.536;12.688;2023-05-29T04:05:59;8.02;;;5.40;;
22152;SDS011;11242;50.536;12.688;2023-05-29T04:08:24;8.63;;;5.80;;
22152;SDS011;11242;50.536;12.688;2023-05-29T04:10:50;11.77;;;6.05;;
22152;SDS011;11242;50.536;12.688;2023-05-29T04:13:20;13.07;;;6.10;;
22152;SDS011;11242;50.536;12.688;2023-05-29T04:15:46;7.80;;;5.18;;
22152;SDS011;11242;50.536;12.688;2023-05-29T04:18:11;6.85;;;4.70;;
22152;SDS011;11242;50.536;12.688;2023-05-29T04:20:37;6.00;;;4.47;;
22152;SDS011;11242;50.536;12.688;2023-05-29T04:23:06;7.07;;;4.00;;
22152;SDS011;11242;50.536;12.688;2023-05-29T04:25:31;7.68;;;4.28;;
22152;SDS011;11242;50.536;12.688;2023-05-29T04:27:57;6.22;;;4.20;;
22152;SDS011;11242;50.536;12.688;2023-05-29T04:30:26;7.50;;;4.93;;
22152;SDS011;11242;50.536;12.688;2023-05-29T04:32:51;10.45;;;6.93;;
22152;SDS011;11242;50.536;12.688;2023-05-29T04:35:19;19.55;;;13.23;;
22152;SDS011;11242;50.536;12.688;2023-05-29T04:37:52;17.67;;;10.52;;
22152;SDS011;11242;50.536;12.688;2023-05-29T04:40:18;40.88;;;29.38;;
22152;SDS011;11242;50.536;12.688;2023-05-29T04:42:45;14.00;;;10.00;;
22152;SDS011;11242;50.536;12.688;2023-05-29T04:45:12;16.00;;;10.93;;
22152;SDS011;11242;50.536;12.688;2023-05-29T04:47:38;9.55;;;7.07;;
22152;SDS011;11242;50.536;12.688;2023-05-29T04:50:11;8.98;;;7.03;;
22152;SDS011;11242;50.536;12.688;2023-05-29T04:52:40;7.15;;;5.90;;
22152;SDS011;11242;50.536;12.688;2023-05-29T04:55:08;8.02;;;5.25;;
22152;SDS011;11242;50.536;12.688;2023-05-29T04:57:33;6.45;;;5.70;;
22152;SDS011;11242;50.536;12.688;2023-05-29T04:59:59;6.05;;;5.40;;
22152;SDS011;11242;50.536;12.688;2023-05-29T05:02:26;7.40;;;5.40;;
22152;SDS011;11242;50.536;12.688;2023-05-29T05:04:51;12.82;;;6.10;;
22152;SDS011;11242;50.536;12.688;2023-05-29T05:07:17;7.38;;;6.22;;
22152;SDS011;11242;50.536;12.688;2023-05-29T05:09:43;10.60;;;8.50;;
22152;SDS011;11242;50.536;12.688;2023-05-29T05:12:15;11.85;;;10.60;;
22152;SDS011;11242;50.536;12.688;2023-05-29T05:14:42;9.90;;;8.20;;
22152;SDS011;11242;50.536;12.688;2023-05-29T05:17:07;7.57;;;5.68;;
22152;SDS011;11242;50.536;12.688;2023-05-29T05:19:33;10.32;;;5.93;;
22152;SDS011;11242;50.536;12.688;2023-05-29T05:21:59;6.80;;;6.10;;
22152;SDS011;11242;50.536;12.688;2023-05-29T05:24:26;7.18;;;5.97;;
22152;SDS011;11242;50.536;12.688;2023-05-29T05:26:53;6.28;;;5.68;;
22152;SDS011;11242;50.536;12.688;2023-05-29T05:29:19;6.85;;;6.15;;
22152;SDS011;11242;50.536;12.688;2023-05-29T05:31:46;6.95;;;5.80;;
22152;SDS011;11242;50.536;12.688;2023-05-29T05:34:11;5.28;;;4.78;;
22152;SDS011;11242;50.536;12.688;2023-05-29T05:36:39;5.18;;;3.95;;
22152;SDS011;11242;50.536;12.688;2023-05-29T05:39:12;4.63;;;3.80;;
22152;SDS011;11242;50.536;12.688;2023-05-29T05:41:38;5.32;;;3.45;;
22152;SDS011;11242;50.536;12.688;2023-05-29T05:44:04;4.60;;;3.55;;
22152;SDS011;11242;50.536;12.688;2023-05-29T05:46:42;5.05;;;4.22;;
22152;SDS011;11242;50.536;12.688;2023-05-29T05:49:08;5.72;;;5.10;;
22152;SDS011;11242;50.536;12.688;2023-05-29T05:51:34;7.20;;;6.50;;
22152;SDS011;11242;50.536;12.688;2023-05-29T05:54:00;5.03;;;4.20;;
22152;SDS011;11242;50.536;12.688;2023-05-29T05:56:27;7.15;;;4.35;;
22152;SDS011;11242;50.536;12.688;2023-05-29T05:58:52;4.95;;;4.07;;
22152;SDS011;11242;50.536;12.688;2023-05-29T06:01:19;4.57;;;3.67;;
22152;SDS011;11242;50.536;12.688;2023-05-29T06:03:45;6.88;;;3.70;;
22152;SDS011;11242;50.536;12.688;2023-05-29T06:06:10;7.82;;;4.05;;
22152;SDS011;11242;50.536;12.688;2023-05-29T06:08:41;5.80;;;3.95;;
22152;SDS011;11242;50.536;12.688;2023-05-29T06:11:08;5.07;;;3.45;;
22152;SDS011;11242;50.536;12.688;2023-05-29T06:13:36;4.60;;;4.20;;
22152;SDS011;11242;50.536;12.688;2023-05-29T06:16:06;5.43;;;3.97;;
22152;SDS011;11242;50.536;12.688;2023-05-29T06:18:35;4.95;;;3.65;;
22152;SDS011;11242;50.536;12.688;2023-05-29T06:21:01;4.80;;;3.90;;
22152;SDS011;11242;50.536;12.688;2023-05-29T06:23:27;3.88;;;3.47;;
22152;SDS011;11242;50.536;12.688;2023-05-29T06:25:53;4.22;;;3.80;;
22152;SDS011;11242;50.536;12.688;2023-05-29T06:28:19;3.85;;;3.45;;
22152;SDS011;11242;50.536;12.688;2023-05-29T06:30:45;5.47;;;3.60;;
22152;SDS011;11242;50.536;12.688;2023-05-29T06:33:11;3.58;;;3.28;;
22152;SDS011;11242;50.536;12.688;2023-05-29T06:35:38;7.30;;;4.03;;
22152;SDS011;11242;50.536;12.688;2023-05-29T06:38:04;5.20;;;3.70;;
22152;SDS011;11242;50.536;12.688;2023-05-29T06:40:31;5.07;;;3.63;;
22152;SDS011;11242;50.536;12.688;2023-05-29T06:42:56;5.50;;;3.80;;
22152;SDS011;11242;50.536;12.688;2023-05-29T06:45:35;8.80;;;4.10;;
22152;SDS011;11242;50.536;12.688;2023-05-29T06:48:01;5.38;;;3.80;;
22152;SDS011;11242;50.536;12.688;2023-05-29T06:50:30;4.35;;;3.95;;
22152;SDS011;11242;50.536;12.688;2023-05-29T06:53:02;4.18;;;3.78;;
22152;SDS011;11242;50.536;12.688;2023-05-29T06:55:48;4.88;;;4.20;;
22152;SDS011;11242;50.536;12.688;2023-05-29T06:58:14;7.72;;;4.43;;
22152;SDS011;11242;50.536;12.688;2023-05-29T07:00:39;5.30;;;4.20;;
22152;SDS011;11242;50.536;12.688;2023-05-29T07:03:20;5.40;;;4.90;;
22152;SDS011;11242;50.536;12.688;2023-05-29T07:05:47;6.97;;;4.95;;
22152;SDS011;11242;50.536;12.688;2023-05-29T07:08:12;4.45;;;3.78;;
22152;SDS011;11242;50.536;12.688;2023-05-29T07:10:38;8.13;;;4.00;;
22152;SDS011;11242;50.536;12.688;2023-05-29T07:13:04;5.82;;;4.10;;
22152;SDS011;11242;50.536;12.688;2023-05-29T07:15:31;5.75;;;4.35;;
22152;SDS011;11242;50.536;12.688;2023-05-29T07:18:00;4.88;;;4.05;;
22152;SDS011;11242;50.536;12.688;2023-05-29T07:20:27;4.65;;;4.18;;
22152;SDS011;11242;50.536;12.688;2023-05-29T07:22:53;5.20;;;3.80;;
22152;SDS011;11242;50.536;12.688;2023-05-29T07:25:18;6.72;;;4.78;;
22152;SDS011;11242;50.536;12.688;2023-05-29T07:27:44;4.25;;;3.80;;
22152;SDS011;11242;50.536;12.688;2023-05-29T07:30:10;3.83;;;3.50;;
22152;SDS011;11242;50.536;12.688;2023-05-29T07:32:36;4.55;;;3.63;;
22152;SDS011;11242;50.536;12.688;2023-05-29T07:35:02;5.40;;;4.90;;
22152;SDS011;11242;50.536;12.688;2023-05-29T07:37:28;6.03;;;4.55;;
22152;SDS011;11242;50.536;12.688;2023-05-29T07:39:56;6.85;;;4.05;;
22152;SDS011;11242;50.536;12.688;2023-05-29T07:43:03;5.50;;;4.05;;
22152;SDS011;11242;50.536;12.688;2023-05-29T07:45:41;5.50;;;3.95;;
22152;SDS011;11242;50.536;12.688;2023-05-29T07:48:06;5.88;;;3.90;;
22152;SDS011;11242;50.536;12.688;2023-05-29T07:50:32;6.60;;;3.88;;
22152;SDS011;11242;50.536;12.688;2023-05-29T07:52:59;5.40;;;4.65;;
22152;SDS011;11242;50.536;12.688;2023-05-29T07:55:25;3.75;;;3.38;;
22152;SDS011;11242;50.536;12.688;2023-05-29T07:57:51;4.75;;;4.10;;
22152;SDS011;11242;50.536;12.688;2023-05-29T08:00:16;7.38;;;4.07;;
22152;SDS011;11242;50.536;12.688;2023-05-29T08:02:46;7.53;;;3.80;;
22152;SDS011;11242;50.536;12.688;2023-05-29T08:05:30;3.70;;;3.40;;
22152;SDS011;11242;50.536;12.688;2023-05-29T08:07:59;6.03;;;3.42;;
22152;SDS011;11242;50.536;12.688;2023-05-29T08:10:25;3.92;;;3.50;;
22152;SDS011;11242;50.536;12.688;2023-05-29T08:12:51;5.93;;;3.58;;
22152;SDS011;11242;50.536;12.688;2023-05-29T08:15:17;5.70;;;3.60;;
22152;SDS011;11242;50.536;12.688;2023-05-29T08:17:44;4.30;;;3.63;;
22152;SDS011;11242;50.536;12.688;2023-05-29T08:20:09;5.18;;;3.78;;
22152;SDS011;11242;50.536;12.688;2023-05-29T08:22:35;5.85;;;3.70;;
22152;SDS011;11242;50.536;12.688;2023-05-29T08:25:01;4.65;;;3.70;;
22152;SDS011;11242;50.536;12.688;2023-05-29T08:27:26;5.88;;;4.00;;
22152;SDS011;11242;50.536;12.688;2023-05-29T08:29:52;4.68;;;3.80;;
22152;SDS011;11242;50.536;12.688;2023-05-29T08:32:19;7.22;;;3.67;;
22152;SDS011;11242;50.536;12.688;2023-05-29T08:34:45;8.02;;;3.47;;
22152;SDS011;11242;50.536;12.688;2023-05-29T08:37:11;6.75;;;3.97;;
22152;SDS011;11242;50.536;12.688;2023-05-29T08:39:37;5.20;;;3.58;;
22152;SDS011;11242;50.536;12.688;2023-05-29T08:42:07;4.60;;;3.53;;
22152;SDS011;11242;50.536;12.688;2023-05-29T08:44:39;4.18;;;3.75;;
22152;SDS011;11242;50.536;12.688;2023-05-29T08:47:05;4.63;;;3.78;;
22152;SDS011;11242;50.536;12.688;2023-05-29T08:49:42;5.65;;;3.85;;
22152;SDS011;11242;50.536;12.688;2023-05-29T08:52:19;6.30;;;3.80;;
22152;SDS011;11242;50.536;12.688;2023-05-29T08:54:47;9.73;;;4.07;;
22152;SDS011;11242;50.536;12.688;2023-05-29T08:57:13;5.00;;;3.67;;
22152;SDS011;11242;50.536;12.688;2023-05-29T08:59:39;4.47;;;3.50;;
22152;SDS011;11242;50.536;12.688;2023-05-29T09:02:09;5.20;;;3.25;;
22152;SDS011;11242;50.536;12.688;2023-05-29T09:04:43;5.35;;;3.83;;
22152;SDS011;11242;50.536;12.688;2023-05-29T09:07:14;5.15;;;3.38;;
22152;SDS011;11242;50.536;12.688;2023-05-29T09:09:40;3.58;;;3.10;;
22152;SDS011;11242;50.536;12.688;2023-05-29T09:12:06;3.70;;;3.40;;
22152;SDS011;11242;50.536;12.688;2023-05-29T09:14:36;6.35;;;3.25;;
22152;SDS011;11242;50.536;12.688;2023-05-29T09:17:02;4.03;;;3.30;;
22152;SDS011;11242;50.536;12.688;2023-05-29T09:19:29;5.00;;;3.20;;
22152;SDS011;11242;50.536;12.688;2023-05-29T09:22:02;6.55;;;2.95;;
22152;SDS011;11242;50.536;12.688;2023-05-29T09:24:30;4.95;;;3.28;;
22152;SDS011;11242;50.536;12.688;2023-05-29T09:26:58;6.15;;;3.13;;
22152;SDS011;11242;50.536;12.688;2023-05-29T09:29:26;7.25;;;3.65;;
22152;SDS011;11242;50.536;12.688;2023-05-29T09:31:58;5.68;;;3.33;;
22152;SDS011;11242;50.536;12.688;2023-05-29T09:34:26;4.30;;;3.35;;
22152;SDS011;11242;50.536;12.688;2023-05-29T09:37:00;12.43;;;3.85;;
22152;SDS011;11242;50.536;12.688;2023-05-29T09:39:46;4.63;;;3.75;;
22152;SDS011;11242;50.536;12.688;2023-05-29T09:42:16;9.27;;;3.08;;
22152;SDS011;11242;50.536;12.688;2023-05-29T09:44:49;6.68;;;3.63;;
22152;SDS011;11242;50.536;12.688;2023-05-29T09:47:17;4.53;;;3.55;;
22152;SDS011;11242;50.536;12.688;2023-05-29T09:49:43;6.40;;;3.42;;
22152;SDS011;11242;50.536;12.688;2023-05-29T09:52:13;4.00;;;3.35;;
22152;SDS011;11242;50.536;12.688;2023-05-29T09:54:43;4.22;;;3.20;;
22152;SDS011;11242;50.536;12.688;2023-05-29T09:57:13;4.88;;;3.58;;
22152;SDS011;11242;50.536;12.688;2023-05-29T09:59:43;5.78;;;3.28;;
22152;SDS011;11242;50.536;12.688;2023-05-29T10:02:11;5.15;;;3.20;;
22152;SDS011;11242;50.536;12.688;2023-05-29T10:04:38;6.68;;;4.13;;
22152;SDS011;11242;50.536;12.688;2023-05-29T10:07:08;6.45;;;3.38;;
22152;SDS011;11242;50.536;12.688;2023-05-29T10:09:42;3.70;;;3.40;;
22152;SDS011;11242;50.536;12.688;2023-05-29T10:12:13;5.47;;;3.70;;
22152;SDS011;11242;50.536;12.688;2023-05-29T10:14:45;5.30;;;3.70;;
22152;SDS011;11242;50.536;12.688;2023-05-29T10:17:14;5.47;;;3.42;;
22152;SDS011;11242;50.536;12.688;2023-05-29T10:19:49;5.03;;;3.63;;
22152;SDS011;11242;50.536;12.688;2023-05-29T10:22:18;5.35;;;3.70;;
22152;SDS011;11242;50.536;12.688;2023-05-29T10:24:46;7.32;;;3.50;;
22152;SDS011;11242;50.536;12.688;2023-05-29T10:27:15;4.57;;;3.65;;
22152;SDS011;11242;50.536;12.688;2023-05-29T10:29:52;8.13;;;3.78;;
22152;SDS011;11242;50.536;12.688;2023-05-29T10:33:07;4.85;;;3.60;;
22152;SDS011;11242;50.536;12.688;2023-05-29T10:39:05;4.47;;;3.55;;
22152;SDS011;11242;50.536;12.688;2023-05-29T10:41:30;6.15;;;3.83;;
22152;SDS011;11242;50.536;12.688;2023-05-29T10:43:59;4.70;;;3.60;;
22152;SDS011;11242;50.536;12.688;2023-05-29T10:49:16;6.32;;;3.67;;
22152;SDS011;11242;50.536;12.688;2023-05-29T10:51:42;8.20;;;4.40;;
22152;SDS011;11242;50.536;12.688;2023-05-29T10:54:08;4.57;;;3.70;;
22152;SDS011;11242;50.536;12.688;2023-05-29T10:56:34;4.45;;;4.05;;
22152;SDS011;11242;50.536;12.688;2023-05-29T10:59:00;6.03;;;3.60;;
22152;SDS011;11242;50.536;12.688;2023-05-29T11:01:27;5.03;;;4.18;;
22152;SDS011;11242;50.536;12.688;2023-05-29T11:06:43;6.45;;;3.70;;
22152;SDS011;11242;50.536;12.688;2023-05-29T11:09:28;9.38;;;3.83;;
22152;SDS011;11242;50.536;12.688;2023-05-29T11:14:47;5.60;;;3.53;;
22152;SDS011;11242;50.536;12.688;2023-05-29T11:17:28;6.38;;;3.60;;
22152;SDS011;11242;50.536;12.688;2023-05-29T11:20:04;4.50;;;3.65;;
22152;SDS011;11242;50.536;12.688;2023-05-29T11:25:13;5.03;;;3.75;;
22152;SDS011;11242;50.536;12.688;2023-05-29T11:27:43;5.70;;;3.53;;
22152;SDS011;11242;50.536;12.688;2023-05-29T11:30:09;5.22;;;4.05;;
22152;SDS011;11242;50.536;12.688;2023-05-29T11:32:36;7.03;;;3.83;;
22152;SDS011;11242;50.536;12.688;2023-05-29T11:35:06;5.22;;;3.85;;
22152;SDS011;11242;50.536;12.688;2023-05-29T11:37:40;5.85;;;3.72;;
22152;SDS011;11242;50.536;12.688;2023-05-29T11:40:08;4.88;;;3.50;;
22152;SDS011;11242;50.536;12.688;2023-05-29T11:42:35;5.38;;;4.13;;
22152;SDS011;11242;50.536;12.688;2023-05-29T11:48:00;4.72;;;3.50;;
22152;SDS011;11242;50.536;12.688;2023-05-29T11:50:28;6.00;;;4.15;;
22152;SDS011;11242;50.536;12.688;2023-05-29T11:52:55;4.70;;;4.20;;
22152;SDS011;11242;50.536;12.688;2023-05-29T11:55:22;4.18;;;3.67;;
22152;SDS011;11242;50.536;12.688;2023-05-29T11:57:49;6.03;;;3.78;;
22152;SDS011;11242;50.536;12.688;2023-05-29T12:00:16;4.82;;;3.75;;
22152;SDS011;11242;50.536;12.688;2023-05-29T12:02:43;5.35;;;3.85;;
22152;SDS011;11242;50.536;12.688;2023-05-29T12:05:12;5.60;;;4.03;;
22152;SDS011;11242;50.536;12.688;2023-05-29T12:07:46;4.78;;;3.88;;
22152;SDS011;11242;50.536;12.688;2023-05-29T12:10:13;7.50;;;3.90;;
22152;SDS011;11242;50.536;12.688;2023-05-29T12:12:40;4.57;;;4.03;;
22152;SDS011;11242;50.536;12.688;2023-05-29T12:15:07;7.25;;;4.20;;
22152;SDS011;11242;50.536;12.688;2023-05-29T12:17:33;7.05;;;3.80;;
22152;SDS011;11242;50.536;12.688;2023-05-29T12:20:00;8.02;;;3.85;;
22152;SDS011;11242;50.536;12.688;2023-05-29T12:22:32;6.63;;;4.13;;
22152;SDS011;11242;50.536;12.688;2023-05-29T12:25:20;5.20;;;3.90;;
22152;SDS011;11242;50.536;12.688;2023-05-29T12:27:46;4.70;;;4.18;;
22152;SDS011;11242;50.536;12.688;2023-05-29T12:30:14;5.68;;;3.63;;
22152;SDS011;11242;50.536;12.688;2023-05-29T12:32:47;5.35;;;3.70;;
22152;SDS011;11242;50.536;12.688;2023-05-29T12:35:15;6.32;;;3.88;;
22152;SDS011;11242;50.536;12.688;2023-05-29T12:37:45;6.07;;;3.70;;
22152;SDS011;11242;50.536;12.688;2023-05-29T12:40:18;5.57;;;3.90;;
22152;SDS011;11242;50.536;12.688;2023-05-29T12:45:21;4.45;;;3.67;;
22152;SDS011;11242;50.536;12.688;2023-05-29T12:47:55;7.03;;;4.05;;
22152;SDS011;11242;50.536;12.688;2023-05-29T12:50:29;5.10;;;4.43;;
22152;SDS011;11242;50.536;12.688;2023-05-29T12:53:02;6.28;;;3.97;;
22152;SDS011;11242;50.536;12.688;2023-05-29T12:55:33;4.57;;;3.80;;
22152;SDS011;11242;50.536;12.688;2023-05-29T12:58:13;7.22;;;4.50;;
22152;SDS011;11242;50.536;12.688;2023-05-29T13:00:41;7.82;;;4.13;;
22152;SDS011;11242;50.536;12.688;2023-05-29T13:03:08;5.65;;;3.97;;
22152;SDS011;11242;50.536;12.688;2023-05-29T13:05:37;8.20;;;4.20;;
22152;SDS011;11242;50.536;12.688;2023-05-29T13:08:03;6.95;;;4.40;;
22152;SDS011;11242;50.536;12.688;2023-05-29T13:10:32;8.73;;;4.40;;
22152;SDS011;11242;50.536;12.688;2023-05-29T13:12:59;4.70;;;3.92;;
22152;SDS011;11242;50.536;12.688;2023-05-29T13:15:25;7.85;;;4.22;;
22152;SDS011;11242;50.536;12.688;2023-05-29T13:17:51;8.18;;;4.53;;
22152;SDS011;11242;50.536;12.688;2023-05-29T13:20:17;6.28;;;3.95;;
22152;SDS011;11242;50.536;12.688;2023-05-29T13:22:44;6.20;;;4.20;;
22152;SDS011;11242;50.536;12.688;2023-05-29T13:25:11;16.52;;;4.40;;
22152;SDS011;11242;50.536;12.688;2023-05-29T13:27:39;5.70;;;3.65;;
22152;SDS011;11242;50.536;12.688;2023-05-29T13:30:09;5.35;;;3.85;;
22152;SDS011;11242;50.536;12.688;2023-05-29T13:32:35;9.00;;;4.07;;
22152;SDS011;11242;50.536;12.688;2023-05-29T13:35:01;7.97;;;3.90;;
22152;SDS011;11242;50.536;12.688;2023-05-29T13:37:35;5.78;;;3.80;;
22152;SDS011;11242;50.536;12.688;2023-05-29T13:40:01;5.82;;;3.88;;
22152;SDS011;11242;50.536;12.688;2023-05-29T13:42:27;8.68;;;4.07;;
22152;SDS011;11242;50.536;12.688;2023-05-29T13:44:52;5.55;;;3.75;;
22152;SDS011;11242;50.536;12.688;2023-05-29T13:47:18;5.65;;;4.10;;
22152;SDS011;11242;50.536;12.688;2023-05-29T13:49:44;4.47;;;3.92;;
22152;SDS011;11242;50.536;12.688;2023-05-29T13:52:10;9.45;;;4.03;;
22152;SDS011;11242;50.536;12.688;2023-05-29T13:54:35;6.47;;;4.07;;
22152;SDS011;11242;50.536;12.688;2023-05-29T13:57:04;4.90;;;3.70;;
22152;SDS011;11242;50.536;12.688;2023-05-29T13:59:31;7.45;;;4.43;;
22152;SDS011;11242;50.536;12.688;2023-05-29T14:01:57;9.40;;;3.80;;
22152;SDS011;11242;50.536;12.688;2023-05-29T14:04:23;6.78;;;4.90;;
22152;SDS011;11242;50.536;12.688;2023-05-29T14:06:48;7.13;;;4.82;;
22152;SDS011;11242;50.536;12.688;2023-05-29T14:09:14;16.30;;;10.77;;
22152;SDS011;11242;50.536;12.688;2023-05-29T14:11:40;9.60;;;7.63;;
22152;SDS011;11242;50.536;12.688;2023-05-29T14:14:06;8.43;;;5.28;;
22152;SDS011;11242;50.536;12.688;2023-05-29T14:16:32;7.22;;;4.22;;
22152;SDS011;11242;50.536;12.688;2023-05-29T14:18:58;6.57;;;4.15;;
22152;SDS011;11242;50.536;12.688;2023-05-29T14:21:24;6.30;;;4.10;;
22152;SDS011;11242;50.536;12.688;2023-05-29T14:23:50;6.75;;;3.80;;
22152;SDS011;11242;50.536;12.688;2023-05-29T14:26:16;6.72;;;3.88;;
22152;SDS011;11242;50.536;12.688;2023-05-29T14:28:42;6.43;;;4.05;;
22152;SDS011;11242;50.536;12.688;2023-05-29T14:31:07;6.13;;;3.80;;
22152;SDS011;11242;50.536;12.688;2023-05-29T14:33:33;5.18;;;4.03;;
22152;SDS011;11242;50.536;12.688;2023-05-29T14:35:59;5.72;;;4.28;;
22152;SDS011;11242;50.536;12.688;2023-05-29T14:38:24;6.07;;;3.80;;
22152;SDS011;11242;50.536;12.688;2023-05-29T14:40:50;6.35;;;4.40;;
22152;SDS011;11242;50.536;12.688;2023-05-29T14:43:16;5.78;;;3.90;;
22152;SDS011;11242;50.536;12.688;2023-05-29T14:45:43;6.82;;;4.13;;
22152;SDS011;11242;50.536;12.688;2023-05-29T14:48:08;5.47;;;4.20;;
22152;SDS011;11242;50.536;12.688;2023-05-29T14:50:35;7.75;;;4.05;;
22152;SDS011;11242;50.536;12.688;2023-05-29T14:53:01;6.18;;;4.03;;
22152;SDS011;11242;50.536;12.688;2023-05-29T14:55:27;7.03;;;4.22;;
22152;SDS011;11242;50.536;12.688;2023-05-29T14:57:53;4.43;;;3.83;;
22152;SDS011;11242;50.536;12.688;2023-05-29T15:00:19;6.55;;;4.45;;
22152;SDS011;11242;50.536;12.688;2023-05-29T15:02:44;7.43;;;4.20;;